Latest Weather Observations for Friendly Beaches

IDT60801

Issued at 10:35 pm EST Friday 25 July 2014 (issued every 30 minutes, with the page automatically refreshed every 10 minutes)

About weather observations | Map of weather stations | Latest weather observations for TAS | Other Formats
Station Details ID: 092114 Name: FRIENDLY BEACHES Lat: -42.00 Lon: 148.28 Height: 55.0 m
Data from the previous 72 hours. | See also: Recent months at Friendly Beaches
Date/Time
EST
Temp
°C
App
Temp
°C
Dew
Point
Rel
Hum
%
Delta-T
°C
Wind Press
QNH
hPa
Press
MSL
hPa
Rain
since 9 am
mm
Dir
 
Spd
km/h
Gust
km/h
Spd
kts
Gust
kts
25/10:30pm 8.4 6.3 8.1 98 0.1 WNW 9 13 5 7 1018.6 - 21.8
25/10:00pm 8.2 6.4 7.9 98 0.1 WNW 7 9 4 5 1018.6 1018.7 21.8
25/09:30pm 8.4 6.2 8.0 97 0.2 WNW 9 11 5 6 1018.4 - 21.8
25/09:00pm 9.0 7.5 8.6 97 0.2 WNW 6 7 3 4 1018.4 1018.5 21.8
25/08:30pm 9.3 7.9 9.0 98 0.1 N 6 7 3 4 1018.2 - 21.8
25/08:00pm 9.2 7.8 8.7 97 0.2 NNE 6 9 3 5 1018.3 1018.4 21.8
25/07:30pm 9.2 7.8 8.7 97 0.2 W 6 7 3 4 1018.4 - 21.6
25/07:00pm 9.2 7.8 8.7 97 0.2 NW 6 7 3 4 1018.3 1018.4 21.6
25/06:30pm 9.1 7.6 8.6 97 0.2 WNW 6 6 3 3 1018.1 - 21.6
25/06:00pm 9.4 8.4 8.8 96 0.3 N 4 6 2 3 1017.8 1017.9 21.6
25/05:30pm 9.8 8.9 9.2 96 0.3 WNW 4 4 2 2 1017.7 - 21.6
25/05:00pm 10.1 9.3 9.6 97 0.3 NW 4 7 2 4 1017.2 1017.3 21.6
25/04:30pm 10.5 10.1 9.9 96 0.3 SW 2 4 1 2 1017.0 - 21.6
25/04:00pm 10.4 9.1 9.8 96 0.3 S 7 9 4 5 1017.0 1017.1 21.6
25/03:30pm 10.0 9.5 9.2 95 0.4 N 2 4 1 2 1017.1 - 21.0
25/03:00pm 10.6 9.3 10.0 96 0.3 NNE 7 11 4 6 1017.5 1017.6 19.2
25/02:30pm 10.2 8.8 9.4 95 0.4 N 7 11 4 6 1017.5 - 15.0
25/02:00pm 10.7 7.1 9.9 95 0.4 N 19 28 10 15 1017.6 1017.7 12.2
25/01:30pm 10.7 7.8 9.5 92 0.6 NNW 15 26 8 14 1017.2 - 7.4
25/01:00pm 11.1 7.5 10.0 93 0.6 NNW 19 33 10 18 1017.3 1017.4 5.0
25/12:30pm 12.4 10.8 11.6 95 0.4 N 11 15 6 8 1017.2 - 3.0
25/12:00pm 12.6 11.7 11.2 91 0.7 N 7 17 4 9 1017.5 1017.6 0.6
25/11:30am 13.0 11.7 9.8 81 1.6 N 7 11 4 6 1017.6 - 0.0
25/11:00am 13.8 13.3 12.2 90 0.9 NNE 6 9 3 5 1018.0 1018.1 0.0
25/10:30am 14.2 13.7 12.6 90 0.9 NNE 7 11 4 6 1018.1 - 0.0
25/10:00am 13.9 13.0 12.6 92 0.7 NE 9 13 5 7 1018.1 1018.2 0.0
25/09:30am 13.9 13.5 13.0 94 0.5 N 7 15 4 8 1017.9 - 0.0
25/09:00am 12.8 11.8 12.3 97 0.3 N 9 15 5 8 1017.7 1017.8 1.0
25/08:30am 12.3 11.8 12.0 98 0.2 NNE 6 7 3 4 1017.3 - 1.0
25/08:00am 12.2 12.8 11.9 98 0.2 CALM 0 0 0 0 1017.1 1017.2 1.0
25/07:30am 12.2 12.8 11.9 98 0.2 CALM 0 0 0 0 1017.1 - 1.0
25/07:00am 11.3 10.9 11.0 98 0.2 NW 4 6 2 3 1017.0 1017.1 1.0
25/06:30am 12.4 11.7 12.1 98 0.2 NNE 7 13 4 7 1016.9 - 1.0
25/06:00am 11.4 11.4 11.1 98 0.2 SSW 2 4 1 2 1016.5 1016.6 0.2
25/05:30am 9.4 8.4 8.9 97 0.2 W 4 6 2 3 1016.6 - 0.2
25/05:00am 8.6 6.0 7.8 95 0.4 WNW 11 19 6 10 1016.8 1016.9 0.2
25/04:30am 9.8 9.7 9.3 97 0.2 CALM 0 0 0 0 1016.5 - 0.2
25/04:00am 8.5 6.6 7.7 95 0.4 NW 7 13 4 7 1016.7 1016.8 0.2
25/03:30am 7.6 4.8 7.0 96 0.3 WNW 11 17 6 9 1017.0 - 0.2
25/03:00am 8.0 5.7 7.4 96 0.3 WNW 9 11 5 6 1016.9 1017.0 0.2
25/02:30am 7.7 5.3 7.1 96 0.3 WNW 9 11 5 6 1017.2 - 0.2
25/02:00am 7.7 4.9 7.1 96 0.3 NW 11 15 6 8 1017.3 1017.4 0.2
25/01:30am 8.0 5.6 7.2 95 0.4 WNW 9 11 5 6 1017.3 - 0.2
25/01:00am 8.7 6.5 7.9 95 0.4 NW 9 9 5 5 1017.4 1017.5 0.2
25/12:30am 8.4 6.2 7.8 96 0.3 NW 9 15 5 8 1017.6 - 0.2
25/12:00am 8.5 6.4 8.1 97 0.2 WNW 9 11 5 6 1017.8 1017.9 0.2
 
Date/Time
EST
Temp
°C
App
Temp
°C
Dew
Point
Rel
Hum
%
Delta-T
°C
Wind Press
QNH
hPa
Press
MSL
hPa
Rain
since 9 am
mm
Dir
 
Spd
km/h
Gust
km/h
Spd
kts
Gust
kts
24/11:30pm 8.3 6.1 8.0 98 0.1 WNW 9 11 5 6 1018.0 - 0.2
24/11:00pm 7.6 5.2 7.2 97 0.2 WNW 9 9 5 5 1018.1 1018.2 0.2
24/10:30pm 8.0 6.1 7.4 96 0.3 WNW 7 9 4 5 1018.2 - 0.2
24/10:00pm 8.4 6.6 7.8 96 0.3 WNW 7 9 4 5 1018.3 1018.4 0.2
24/09:30pm 8.4 6.6 7.8 96 0.3 WNW 7 9 4 5 1018.4 - 0.0
24/09:00pm 8.4 6.6 7.8 96 0.3 WNW 7 7 4 4 1018.5 1018.6 0.0
24/08:30pm 8.7 7.1 7.9 95 0.4 NW 6 9 3 5 1018.6 - 0.0
24/08:00pm 8.6 7.2 7.4 92 0.6 WNW 4 6 2 3 1018.6 1018.7 0.0
24/07:30pm 10.0 8.6 8.8 92 0.6 N 6 11 3 6 1018.5 - 0.0
24/07:00pm 9.8 8.2 8.6 92 0.6 N 7 11 4 6 1018.2 1018.3 0.0
24/06:30pm 9.9 8.4 8.3 90 0.8 N 6 7 3 4 1018.2 - 0.0
24/06:00pm 10.0 8.3 8.3 89 0.8 N 7 9 4 5 1018.0 1018.1 0.0
24/05:30pm 10.0 8.4 8.1 88 0.9 N 6 7 3 4 1018.1 - 0.0
24/05:00pm 11.3 10.2 8.5 83 1.4 NNE 4 6 2 3 1018.0 1018.1 0.0
24/04:30pm 11.9 10.5 8.7 81 1.6 N 6 7 3 4 1018.0 - 0.0
24/04:00pm 12.1 10.7 8.8 80 1.6 NE 6 11 3 6 1017.9 1018.0 0.0
24/03:30pm 12.7 10.7 8.8 77 2.0 NE 9 13 5 7 1017.8 - 0.0
24/03:00pm 13.3 11.8 9.0 75 2.2 NE 7 15 4 8 1017.7 1017.8 0.0
24/02:30pm 13.0 11.1 9.1 77 2.0 ENE 9 13 5 7 1017.8 - 0.0
24/02:00pm 13.4 11.0 8.7 73 2.4 ENE 11 15 6 8 1017.8 1017.9 0.0
24/01:30pm 13.0 11.4 8.9 76 2.1 E 7 11 4 6 1018.2 - 0.0
24/01:00pm 12.3 10.6 7.4 72 2.4 ESE 6 9 3 5 1018.6 1018.7 0.0
24/12:30pm 12.1 10.2 6.8 70 2.5 ESE 6 9 3 5 1018.9 - 0.0
24/12:00pm 12.5 11.6 6.1 65 3.0 CALM 0 0 0 0 1019.2 1019.3 0.0
24/11:30am 12.1 11.4 6.8 70 2.5 CALM 0 0 0 0 1019.6 - 0.0
24/11:00am 9.8 7.6 5.4 74 2.0 WNW 6 9 3 5 1020.1 1020.1 0.0
24/10:30am 9.1 6.9 5.5 78 1.6 WNW 6 9 3 5 1020.4 - 0.0
24/10:00am 7.0 4.1 4.7 85 1.0 WNW 9 11 5 6 1020.4 1020.4 0.0
24/09:30am 6.0 2.6 4.0 87 0.9 WNW 11 13 6 7 1020.4 - 0.0
24/09:00am 4.6 0.7 3.6 93 0.4 WNW 13 13 7 7 1020.2 1020.2 0.0
24/08:30am 3.2 -1.0 1.9 91 0.5 NW 13 13 7 7 1020.1 - 0.0
24/08:00am 3.1 -0.3 1.9 92 0.5 WNW 9 11 5 6 1020.0 1020.0 0.0
24/07:30am 4.9 1.8 3.4 90 0.6 WNW 9 11 5 6 1019.8 - 0.0
24/07:00am 3.6 0.0 2.7 94 0.4 WNW 11 11 6 6 1019.8 1019.9 0.0
24/06:30am 3.4 -0.3 2.5 94 0.4 WNW 11 13 6 7 1019.6 - 0.0
24/06:00am 3.2 -0.9 2.3 94 0.4 WNW 13 13 7 7 1019.6 1019.7 0.0
24/05:30am 3.4 -0.2 2.8 96 0.2 W 11 13 6 7 1019.6 - 0.0
24/05:00am 3.2 0.3 2.5 95 0.3 WNW 7 9 4 5 1019.7 1019.8 0.0
24/04:30am 2.2 -1.3 1.5 95 0.3 WNW 9 11 5 6 1019.6 - 0.0
24/04:00am 2.7 -0.2 1.7 93 0.4 NW 6 9 3 5 1019.5 1019.6 0.0
24/03:30am 3.1 0.7 2.4 95 0.3 W 4 7 2 4 1019.4 - 0.0
24/03:00am 2.8 -0.2 1.9 94 0.4 WNW 7 9 4 5 1019.5 1019.6 0.0
24/02:30am 2.6 -0.2 2.2 97 0.2 NW 6 6 3 3 1019.8 - 0.0
24/02:00am 2.2 -1.3 1.3 94 0.3 WNW 9 11 5 6 1020.1 1020.1 0.0
24/01:30am 4.2 1.7 3.6 96 0.2 WNW 6 7 3 4 1020.1 - 0.0
24/01:00am 3.7 0.5 3.0 95 0.3 WNW 9 9 5 5 1020.2 1020.2 0.0
24/12:30am 3.3 0.0 2.6 95 0.3 WNW 9 11 5 6 1020.4 - 0.0
24/12:00am 4.1 0.9 3.1 93 0.4 WNW 9 9 5 5 1020.7 1020.8 0.0
 
Date/Time
EST
Temp
°C
App
Temp
°C
Dew
Point
Rel
Hum
%
Delta-T
°C
Wind Press
QNH
hPa
Press
MSL
hPa
Rain
since 9 am
mm
Dir
 
Spd
km/h
Gust
km/h
Spd
kts
Gust
kts
23/11:30pm 5.0 2.6 4.3 95 0.3 WNW 6 7 3 4 1021.0 - 0.0
23/11:00pm 3.2 -0.5 2.6 96 0.2 WNW 11 11 6 6 1021.4 1021.5 0.0
23/10:30pm 4.0 0.8 3.3 95 0.3 WNW 9 9 5 5 1021.4 - 0.0
23/10:00pm 4.6 1.9 3.6 93 0.4 WNW 7 9 4 5 1021.5 1021.6 0.0
23/09:30pm 5.6 3.0 4.1 90 0.6 NNW 7 9 4 5 1021.6 - 0.0
23/09:00pm 7.1 4.5 4.4 83 1.2 NNW 7 11 4 6 1021.7 1021.8 0.0
23/08:30pm 8.5 5.8 5.4 81 1.4 NNW 9 13 5 7 1021.8 - 0.0
23/08:00pm 7.8 5.0 5.1 83 1.2 NNW 9 11 5 6 1021.7 1021.8 0.0
23/07:30pm 8.0 5.6 5.3 83 1.2 NNW 7 9 4 5 1021.7 - 0.0
23/07:00pm 8.7 6.0 5.8 82 1.3 N 9 11 5 6 1021.6 1021.7 0.0
23/06:30pm 7.5 5.0 5.0 84 1.1 N 7 9 4 5 1021.5 - 0.0
23/06:00pm 8.3 7.2 5.2 81 1.4 CALM 0 2 0 1 1021.3 1021.4 0.0
23/05:30pm 8.9 7.4 5.1 77 1.7 E 2 6 1 3 1021.3 - 0.0
23/05:00pm 9.7 7.5 5.3 74 2.0 N 6 9 3 5 1021.3 1021.4 0.0
23/04:30pm 10.9 8.3 5.9 71 2.3 N 9 11 5 6 1021.2 - 0.0
23/04:00pm 11.6 9.3 5.9 68 2.7 NNE 7 13 4 7 1021.1 1021.2 0.0
23/03:30pm 13.0 10.8 6.4 64 3.2 NNE 7 13 4 7 1021.2 - 0.0
23/03:00pm 14.4 11.9 6.7 60 3.7 NNE 9 13 5 7 1021.2 1021.3 0.0
23/02:30pm 13.5 10.8 5.4 58 3.8 NNE 9 13 5 7 1021.2 - 0.0
23/02:00pm 14.4 11.4 6.0 57 4.0 ENE 11 15 6 8 1021.4 1021.5 0.0
23/01:30pm 14.8 12.5 5.9 55 4.3 NE 7 13 4 7 1021.7 - 0.0
23/01:00pm 14.1 11.6 4.9 54 4.3 ENE 7 11 4 6 1022.0 1022.1 0.0
23/12:30pm 14.4 12.0 4.4 51 4.6 ENE 6 9 3 5 1022.5 - 0.0
23/12:00pm 13.9 11.9 4.2 52 4.4 WNW 4 7 2 4 1023.0 1023.1 0.0
23/11:30am 12.9 10.5 4.1 55 4.0 WNW 6 7 3 4 1023.3 - 0.0
23/11:00am 11.7 9.2 4.0 59 3.4 WNW 6 9 3 5 1023.8 1023.9 0.0
23/10:30am 10.7 8.2 4.6 66 2.8 WNW 7 11 4 6 1024.1 - 0.0
23/10:00am 8.8 5.8 4.2 73 2.0 WNW 9 13 5 7 1024.1 1024.2 0.0
23/09:30am 7.8 4.4 4.2 78 1.6 WNW 11 15 6 8 1024.1 - 0.0
23/09:00am 6.2 2.4 4.0 86 0.9 WNW 13 15 7 8 1024.1 1024.2 0.2
23/08:30am 5.4 1.6 3.7 89 0.7 WNW 13 15 7 8 1024.0 - 0.2
23/08:00am 4.0 0.0 3.0 93 0.4 WNW 13 15 7 8 1023.9 1024.0 0.2
23/07:30am 3.1 -1.4 2.1 93 0.4 WNW 15 19 8 10 1023.7 - 0.2
23/07:00am 3.3 -0.1 2.1 92 0.5 WNW 9 11 5 6 1023.5 1023.6 0.2
23/06:30am 5.3 3.4 2.8 84 1.0 W 2 4 1 2 1023.3 - 0.2
23/06:00am 4.8 2.1 2.8 87 0.8 NW 6 7 3 4 1023.4 1023.5 0.2
23/05:30am 5.9 3.1 3.2 83 1.1 WNW 7 9 4 5 1023.3 - 0.2
23/05:00am 6.3 3.2 3.5 82 1.2 WNW 9 11 5 6 1023.4 1023.5 0.2
23/04:30am 4.0 0.7 2.5 90 0.6 W 9 13 5 7 1023.6 - 0.2
23/04:00am 5.7 2.5 3.2 84 1.0 W 9 9 5 5 1023.5 1023.6 0.2
23/03:30am 5.8 2.6 3.1 83 1.1 WNW 9 11 5 6 1023.5 - 0.2
23/03:00am 5.3 1.7 3.2 86 0.9 WNW 11 13 6 7 1023.6 1023.7 0.2
23/02:30am 5.3 1.7 3.0 85 0.9 WNW 11 13 6 7 1023.7 - 0.2
23/02:00am 5.2 1.6 3.1 86 0.9 WNW 11 13 6 7 1023.7 1023.8 0.2
23/01:30am 5.3 1.3 2.8 84 1.0 WNW 13 15 7 8 1023.7 - 0.2
23/01:00am 5.7 1.8 3.4 85 1.0 WNW 13 15 7 8 1023.7 1023.8 0.2
23/12:30am 4.6 0.2 2.9 89 0.7 WNW 15 17 8 9 1024.1 - 0.2
23/12:00am 5.3 1.4 3.2 86 0.9 WNW 13 15 7 8 1024.1 1024.2 0.2
 
Date/Time
EST
Temp
°C
App
Temp
°C
Dew
Point
Rel
Hum
%
Delta-T
°C
Wind Press
QNH
hPa
Press
MSL
hPa
Rain
since 9 am
mm
Dir
 
Spd
km/h
Gust
km/h
Spd
kts
Gust
kts
22/11:30pm 5.0 1.0 3.0 87 0.8 WNW 13 15 7 8 1024.3 - 0.2
22/11:00pm 5.6 2.2 3.8 88 0.8 WNW 11 13 6 7 1024.4 1024.5 0.2

Other Formats:

Comma delimited format used in spreadsheet applications
http://www.bom.gov.au/fwo/IDT60801/IDT60801.94987.axf

JavaScript Object Notation format (JSON) in row-major order
http://www.bom.gov.au/fwo/IDT60801/IDT60801.94987.json